Time;durP1;ratioP1;P1;durP2;ratioP2;P2;SDS_P1;SDS_P2;PMS_P1;PMS_P2;Temp;Humidity;BMP_temperature;BMP_pressure;BME280_temperature;BME280_humidity;BME280_pressure;Samples;Min_cycle;Max_cycle;Signal;HPM_P1;HPM_P2
2024/04/14 00:01:41;;;;;;;4.63;3.30;;;13.40;99.90;;;;;;4477284;26;20000;-53
2024/04/14 00:03:42;;;;;;;6.00;3.07;;;13.30;99.90;;;;;;4478193;26;19999;-52
2024/04/14 00:05:44;;;;;;;5.43;3.23;;;13.40;99.90;;;;;;4478540;26;20007;-53
2024/04/14 00:07:45;;;;;;;5.20;3.33;;;13.40;99.90;;;;;;4475594;26;20045;-53
2024/04/14 00:09:46;;;;;;;5.10;3.23;;;13.40;99.90;;;;;;4477509;26;20087;-55
2024/04/14 00:11:48;;;;;;;7.93;3.30;;;13.40;99.90;;;;;;4478149;26;20037;-55
2024/04/14 00:13:49;;;;;;;6.97;3.57;;;13.40;99.90;;;;;;4478310;26;20011;-55
2024/04/14 00:16:01;;;;;;;4.43;3.10;;;13.40;99.90;;;;;;4478559;26;20406;-53
2024/04/14 00:18:03;;;;;;;7.13;4.23;;;13.40;99.90;;;;;;4478698;26;20013;-55
2024/04/14 00:20:06;;;;;;;8.03;3.93;;;13.40;99.90;;;;;;4478720;26;20014;-53
2024/04/14 00:22:07;;;;;;;5.70;3.60;;;13.30;99.90;;;;;;4477310;26;20072;-54
2024/04/14 00:24:08;;;;;;;5.20;3.97;;;13.30;99.90;;;;;;4478411;26;20008;-56
2024/04/14 00:26:10;;;;;;;11.40;4.60;;;13.20;99.90;;;;;;4477198;26;20007;-52
2024/04/14 00:28:11;;;;;;;21.37;5.97;;;13.20;99.90;;;;;;4477845;26;20045;-51
2024/04/14 00:30:12;;;;;;;11.50;4.93;;;13.20;99.90;;;;;;4477472;26;20000;-53
2024/04/14 00:32:14;;;;;;;10.67;4.07;;;13.20;99.90;;;;;;4479255;26;20011;-52
2024/04/14 00:34:15;;;;;;;5.37;3.50;;;13.10;99.90;;;;;;4478016;26;20007;-50
2024/04/14 00:36:17;;;;;;;4.30;3.43;;;13.10;99.90;;;;;;4479161;26;20067;-54
2024/04/14 00:38:18;;;;;;;5.00;3.33;;;13.20;99.90;;;;;;4476819;26;20068;-53
2024/04/14 00:40:19;;;;;;;6.20;3.50;;;13.20;99.90;;;;;;4498107;26;20111;-54
2024/04/14 00:42:21;;;;;;;5.80;3.80;;;13.10;99.90;;;;;;4477709;26;20007;-51
2024/04/14 00:44:22;;;;;;;5.80;3.97;;;13.10;99.90;;;;;;4476354;26;21286;-54
2024/04/14 00:46:23;;;;;;;6.40;3.97;;;13.00;99.90;;;;;;4477413;26;20003;-50
2024/04/14 00:48:24;;;;;;;5.47;3.30;;;13.00;99.90;;;;;;4477783;26;20080;-52
2024/04/14 00:50:26;;;;;;;6.37;3.63;;;13.00;99.90;;;;;;4477480;26;20000;-51
2024/04/14 00:52:27;;;;;;;6.70;3.70;;;12.90;99.90;;;;;;4478252;26;20072;-55
2024/04/14 00:54:32;;;;;;;12.13;3.70;;;12.90;99.90;;;;;;4478659;26;19995;-51
2024/04/14 00:56:34;;;;;;;8.37;3.60;;;12.90;99.90;;;;;;4477176;26;20072;-51
2024/04/14 00:58:35;;;;;;;7.80;3.47;;;12.90;99.90;;;;;;4478582;26;20081;-52
2024/04/14 01:00:37;;;;;;;7.40;3.80;;;12.90;99.90;;;;;;4474494;26;20007;-50
2024/04/14 01:02:38;;;;;;;8.03;3.40;;;12.90;99.90;;;;;;4479042;26;20412;-49
2024/04/14 01:04:39;;;;;;;6.63;4.00;;;13.00;99.90;;;;;;4477199;26;20064;-49
2024/04/14 01:06:42;;;;;;;6.30;3.63;;;12.90;99.90;;;;;;4479090;26;20413;-50
2024/04/14 01:08:44;;;;;;;4.70;3.60;;;12.90;99.90;;;;;;4476940;26;20000;-51
2024/04/14 01:10:45;;;;;;;8.50;3.93;;;12.90;99.90;;;;;;4477659;26;20000;-47
2024/04/14 01:12:46;;;;;;;5.43;3.97;;;12.80;99.90;;;;;;4477508;26;20003;-51
2024/04/14 01:14:48;;;;;;;6.67;4.00;;;12.70;99.90;;;;;;4478591;26;20377;-50
2024/04/14 01:16:49;;;;;;;5.87;4.37;;;12.70;99.90;;;;;;4476306;26;20011;-53
2024/04/14 01:18:50;;;;;;;7.37;3.80;;;12.60;99.90;;;;;;4477477;26;20033;-52
2024/04/14 01:20:53;;;;;;;5.80;4.33;;;12.60;99.90;;;;;;4477250;26;19996;-50
2024/04/14 01:22:54;;;;;;;10.87;4.33;;;12.50;99.90;;;;;;4476390;26;20068;-50
2024/04/14 01:25:06;;;;;;;6.80;4.27;;;12.50;99.90;;;;;;4476933;26;19999;-54
2024/04/14 01:27:07;;;;;;;5.97;4.00;;;12.50;99.90;;;;;;4476941;26;20077;-57
2024/04/14 01:29:09;;;;;;;8.17;3.77;;;12.40;99.90;;;;;;4477396;26;20011;-53
2024/04/14 01:31:10;;;;;;;10.33;5.23;;;12.30;99.90;;;;;;4476896;26;20046;-54
2024/04/14 01:33:11;;;;;;;8.47;4.70;;;12.30;99.90;;;;;;4478462;26;20071;-55
2024/04/14 01:35:13;;;;;;;5.43;3.83;;;12.30;99.90;;;;;;4474503;26;20000;-56
2024/04/14 01:37:14;;;;;;;9.90;4.20;;;12.30;99.90;;;;;;4477792;26;20000;-54
2024/04/14 01:39:15;;;;;;;5.63;3.83;;;12.20;99.90;;;;;;4475479;26;20057;-53
2024/04/14 01:41:16;;;;;;;6.90;4.20;;;12.10;99.90;;;;;;4476556;26;20480;-54
2024/04/14 01:43:18;;;;;;;8.93;4.43;;;11.90;99.90;;;;;;4476950;26;19995;-54
2024/04/14 01:45:19;;;;;;;11.20;4.57;;;11.90;99.90;;;;;;4477640;26;19991;-55
2024/04/14 01:47:20;;;;;;;8.53;4.57;;;11.80;99.90;;;;;;4477479;26;20008;-53
2024/04/14 01:49:21;;;;;;;6.03;4.20;;;11.90;99.90;;;;;;4474993;26;20011;-53
2024/04/14 01:51:23;;;;;;;6.10;3.80;;;11.90;99.90;;;;;;4475128;26;20015;-54
2024/04/14 01:53:24;;;;;;;6.63;4.30;;;11.80;99.90;;;;;;4480783;26;20075;-51
2024/04/14 01:55:25;;;;;;;7.23;4.63;;;11.80;99.90;;;;;;4479078;26;20081;-52
2024/04/14 01:57:26;;;;;;;4.93;3.93;;;11.80;99.90;;;;;;4478907;26;19999;-52
2024/04/14 01:59:27;;;;;;;8.57;4.57;;;11.80;99.90;;;;;;4479999;26;19996;-50
2024/04/14 02:01:29;;;;;;;11.00;4.57;;;11.80;99.90;;;;;;4478861;26;20000;-50
2024/04/14 02:03:31;;;;;;;6.70;4.10;;;11.70;99.90;;;;;;4479523;26;20012;-52
2024/04/14 02:05:33;;;;;;;5.63;3.70;;;11.70;99.90;;;;;;4479905;26;20413;-55
2024/04/14 02:07:34;;;;;;;8.00;4.10;;;11.60;99.90;;;;;;4480010;26;20075;-53
2024/04/14 02:09:35;;;;;;;7.93;4.70;;;11.60;99.90;;;;;;4477775;26;20004;-58
2024/04/14 02:11:36;;;;;;;5.23;4.00;;;11.60;99.90;;;;;;4479030;26;20000;-54
2024/04/14 02:13:39;;;;;;;7.00;3.77;;;11.50;99.90;;;;;;4479614;26;20071;-55
2024/04/14 02:15:40;;;;;;;6.93;4.20;;;11.50;99.90;;;;;;4481036;26;20007;-56
2024/04/14 02:17:42;;;;;;;10.97;5.33;;;11.50;99.90;;;;;;4479977;26;20012;-56
2024/04/14 02:19:43;;;;;;;8.23;4.90;;;11.50;99.90;;;;;;4478403;26;20008;-54
2024/04/14 02:21:44;;;;;;;6.70;4.07;;;11.50;99.90;;;;;;4479560;26;20053;-50
2024/04/14 02:23:45;;;;;;;10.33;4.47;;;11.50;99.90;;;;;;4479659;26;20068;-54
2024/04/14 02:25:54;;;;;;;8.27;4.53;;;11.40;99.90;;;;;;4477965;26;19999;-56
2024/04/14 02:27:55;;;;;;;10.63;4.83;;;11.40;99.90;;;;;;4479636;26;20041;-57
2024/04/14 02:29:56;;;;;;;7.30;4.77;;;11.40;99.90;;;;;;4480068;26;20008;-53
2024/04/14 02:31:58;;;;;;;8.90;5.23;;;11.40;99.90;;;;;;4479353;26;20154;-55
2024/04/14 02:33:59;;;;;;;7.13;4.50;;;11.40;99.90;;;;;;4480480;26;20088;-48
2024/04/14 02:36:01;;;;;;;7.13;4.37;;;11.40;99.90;;;;;;4478833;26;20007;-52
2024/04/14 02:38:02;;;;;;;7.00;4.43;;;11.30;99.90;;;;;;4479565;26;20515;-51
2024/04/14 02:40:05;;;;;;;5.77;4.03;;;11.20;99.90;;;;;;4478816;26;20064;-52
2024/04/14 02:42:06;;;;;;;7.70;4.37;;;11.10;99.90;;;;;;4480465;26;20263;-50
2024/04/14 02:44:08;;;;;;;7.70;4.57;;;10.90;99.90;;;;;;4478802;26;20417;-55
2024/04/14 02:46:10;;;;;;;9.80;4.53;;;10.80;99.90;;;;;;4480821;26;20011;-52
2024/04/14 02:48:11;;;;;;;7.80;4.47;;;10.70;99.90;;;;;;4479228;26;20081;-52
2024/04/14 02:50:12;;;;;;;6.37;4.47;;;10.70;99.90;;;;;;4479855;26;20003;-53
2024/04/14 02:52:13;;;;;;;6.33;4.40;;;10.60;99.90;;;;;;4478748;26;20072;-52
2024/04/14 02:54:15;;;;;;;8.67;4.23;;;10.60;99.90;;;;;;4479555;26;19996;-55
2024/04/14 02:56:16;;;;;;;9.37;4.57;;;10.60;99.90;;;;;;4477396;26;20071;-53
2024/04/14 02:58:17;;;;;;;6.37;4.27;;;10.50;99.90;;;;;;4478685;26;20046;-55
2024/04/14 03:00:18;;;;;;;7.40;4.47;;;10.60;99.90;;;;;;4479433;26;20071;-52
2024/04/14 03:02:19;;;;;;;10.97;4.27;;;10.60;99.90;;;;;;4478802;26;20072;-53
2024/04/14 03:04:21;;;;;;;6.57;4.40;;;10.70;99.90;;;;;;4479936;26;20826;-53
2024/04/14 03:06:22;;;;;;;6.73;4.40;;;10.70;99.90;;;;;;4476807;26;20103;-51
2024/04/14 03:08:23;;;;;;;8.77;4.83;;;10.80;99.90;;;;;;4479460;26;20003;-53
2024/04/14 03:10:24;;;;;;;6.50;4.07;;;10.80;99.90;;;;;;4477396;26;20011;-52
2024/04/14 03:12:26;;;;;;;7.37;3.77;;;10.80;99.90;;;;;;4479215;26;20007;-52
2024/04/14 03:14:27;;;;;;;7.93;4.33;;;10.80;99.90;;;;;;4478953;26;20007;-55
2024/04/14 03:16:28;;;;;;;13.57;10.47;;;10.80;99.90;;;;;;4478056;26;20045;-52
2024/04/14 03:18:30;;;;;;;20.63;15.50;;;10.80;99.90;;;;;;4475162;26;20089;-49
2024/04/14 03:20:31;;;;;;;23.50;18.13;;;10.80;99.90;;;;;;4471428;26;20011;-49
2024/04/14 03:22:33;;;;;;;24.63;15.90;;;10.80;99.90;;;;;;4475722;26;20007;-51
2024/04/14 03:24:34;;;;;;;16.73;12.47;;;10.70;99.90;;;;;;4450527;26;20077;-48
2024/04/14 03:26:35;;;;;;;10.03;7.33;;;10.60;99.90;;;;;;4449394;26;20069;-49
2024/04/14 03:28:36;;;;;;;7.87;5.80;;;10.60;99.90;;;;;;4462647;26;20064;-54
2024/04/14 03:30:37;;;;;;;10.53;7.43;;;10.50;99.90;;;;;;4478576;26;20316;-54
2024/04/14 03:32:39;;;;;;;9.97;6.57;;;10.40;99.90;;;;;;4478887;26;20392;-52
2024/04/14 03:34:42;;;;;;;10.53;6.10;;;10.50;99.90;;;;;;4479735;26;20003;-47
2024/04/14 03:36:43;;;;;;;8.50;5.97;;;10.50;99.90;;;;;;4478607;26;20492;-54
2024/04/14 03:38:44;;;;;;;6.33;5.00;;;10.50;99.90;;;;;;4479045;26;20179;-51
2024/04/14 03:40:52;;;;;;;9.17;5.70;;;10.60;99.90;;;;;;4478493;26;20007;-50
2024/04/14 03:42:53;;;;;;;8.60;5.77;;;10.60;99.90;;;;;;4479639;26;20071;-50
2024/04/14 03:44:54;;;;;;;11.57;5.13;;;10.70;99.90;;;;;;4477223;26;20015;-53
2024/04/14 03:46:56;;;;;;;11.90;4.47;;;10.60;99.90;;;;;;4479583;26;20849;-49
2024/04/14 03:48:57;;;;;;;8.33;5.00;;;10.50;99.90;;;;;;4477787;26;20011;-54
2024/04/14 03:50:59;;;;;;;10.20;4.53;;;10.40;99.90;;;;;;4477622;26;20012;-54
2024/04/14 03:53:00;;;;;;;9.63;4.30;;;10.40;99.90;;;;;;4476385;26;20079;-52
2024/04/14 03:55:01;;;;;;;6.67;4.07;;;10.40;99.90;;;;;;4476389;26;20015;-55
2024/04/14 03:57:03;;;;;;;13.53;4.53;;;10.50;99.90;;;;;;4476028;26;20072;-56
2024/04/14 03:59:06;;;;;;;7.00;4.50;;;10.60;99.90;;;;;;4449904;26;20475;-53
2024/04/14 04:01:07;;;;;;;7.27;4.43;;;10.80;99.90;;;;;;4448658;26;20513;-51
2024/04/14 04:03:08;;;;;;;11.43;4.43;;;10.80;99.90;;;;;;4467332;26;20049;-48
2024/04/14 04:05:10;;;;;;;16.77;5.37;;;11.00;99.90;;;;;;4478284;26;20003;-51
2024/04/14 04:07:11;;;;;;;13.37;8.57;;;11.20;99.90;;;;;;4477179;26;20488;-51
2024/04/14 04:09:13;;;;;;;14.67;9.53;;;11.40;99.90;;;;;;4478187;26;20484;-51
2024/04/14 04:11:15;;;;;;;9.13;6.67;;;11.60;99.90;;;;;;4477826;26;20004;-53
2024/04/14 04:13:16;;;;;;;9.00;4.30;;;11.80;99.90;;;;;;4479124;26;20498;-54
2024/04/14 04:15:17;;;;;;;12.80;7.03;;;11.90;99.90;;;;;;4445924;26;20050;-53
2024/04/14 04:17:19;;;;;;;9.03;5.23;;;12.20;99.90;;;;;;4478689;26;20011;-53
2024/04/14 04:19:20;;;;;;;8.97;4.90;;;12.50;99.90;;;;;;4449026;26;20000;-47
2024/04/14 04:21:21;;;;;;;13.30;4.93;;;12.80;99.90;;;;;;4468060;26;20008;-50
2024/04/14 04:23:23;;;;;;;11.10;5.10;;;13.30;99.90;;;;;;4475927;26;19995;-50
2024/04/14 04:25:24;;;;;;;10.70;4.90;;;13.50;99.90;;;;;;4479520;26;19999;-51
2024/04/14 04:27:25;;;;;;;9.07;4.50;;;13.90;99.90;;;;;;4475449;26;20015;-51
2024/04/14 04:29:29;;;;;;;8.43;4.43;;;14.00;99.90;;;;;;4478291;26;20011;-53
2024/04/14 04:31:30;;;;;;;6.43;4.23;;;14.10;99.90;;;;;;4477366;26;20008;-52
2024/04/14 04:33:31;;;;;;;10.03;3.83;;;14.10;99.90;;;;;;4478306;26;20405;-59
2024/04/14 04:35:33;;;;;;;12.30;4.00;;;14.30;99.90;;;;;;4478066;26;20003;-50
2024/04/14 04:37:34;;;;;;;6.18;3.83;;;14.60;99.90;;;;;;4478124;26;20072;-57
2024/04/14 04:39:35;;;;;;;7.25;3.75;;;15.10;99.90;;;;;;4477260;26;19995;-54
2024/04/14 04:41:36;;;;;;;10.38;3.78;;;15.60;99.90;;;;;;4475120;26;20555;-54
2024/04/14 04:43:39;;;;;;;9.35;4.00;;;16.00;99.90;;;;;;4479036;26;20007;-52
2024/04/14 04:45:40;;;;;;;9.52;4.50;;;16.30;99.90;;;;;;4477345;26;20011;-53
2024/04/14 04:47:41;;;;;;;10.65;5.80;;;16.80;99.90;;;;;;4479279;26;20072;-51
2024/04/14 04:49:43;;;;;;;11.75;5.53;;;17.50;99.90;;;;;;4475925;26;20412;-53
2024/04/14 04:51:44;;;;;;;11.10;4.90;;;18.00;99.90;;;;;;4476444;26;20068;-53
2024/04/14 04:53:45;;;;;;;12.95;5.07;;;18.40;99.90;;;;;;4476939;26;19999;-52
2024/04/14 04:55:47;;;;;;;7.63;3.67;;;18.30;99.90;;;;;;4478258;26;20081;-49
2024/04/14 04:57:48;;;;;;;8.68;4.00;;;18.30;99.90;;;;;;4476342;26;20385;-54
2024/04/14 04:59:49;;;;;;;7.70;3.60;;;18.10;99.90;;;;;;4478353;26;20029;-53
2024/04/14 05:01:51;;;;;;;6.80;3.97;;;17.90;99.90;;;;;;4476666;26;20072;-54
2024/04/14 05:03:52;;;;;;;5.10;3.42;;;17.90;99.90;;;;;;4476085;26;20011;-55
2024/04/14 05:06:01;;;;;;;6.40;3.50;;;18.00;99.90;;;;;;4477071;26;20048;-52
2024/04/14 05:08:03;;;;;;;5.60;2.97;;;17.80;99.90;;;;;;4477385;26;20483;-53
2024/04/14 05:10:05;;;;;;;9.35;3.20;;;17.50;99.90;;;;;;4477461;26;20072;-52
2024/04/14 05:12:07;;;;;;;5.95;3.90;;;17.20;99.90;;;;;;4475863;26;20011;-56
2024/04/14 05:14:08;;;;;;;7.45;3.55;;;17.10;99.90;;;;;;4478145;26;20007;-51
2024/04/14 05:16:09;;;;;;;8.32;4.03;;;16.60;99.90;;;;;;4476828;26;20008;-54
2024/04/14 05:18:10;;;;;;;9.90;4.80;;;16.00;99.90;;;;;;4478755;26;20072;-53
2024/04/14 05:20:12;;;;;;;9.57;5.53;;;15.50;99.90;;;;;;4477081;26;20472;-55
2024/04/14 05:22:13;;;;;;;11.70;6.45;;;15.50;99.90;;;;;;4477919;26;20365;-56
2024/04/14 05:24:14;;;;;;;13.82;8.13;;;15.80;99.90;;;;;;4475931;26;20041;-54
2024/04/14 05:26:15;;;;;;;13.57;8.35;;;16.10;99.90;;;;;;4478074;26;20413;-56
2024/04/14 05:28:17;;;;;;;16.48;10.13;;;16.00;99.90;;;;;;4477056;26;20955;-54
2024/04/14 05:30:18;;;;;;;17.00;8.82;;;16.10;99.90;;;;;;4479575;26;20067;-49
2024/04/14 05:32:19;;;;;;;19.10;8.68;;;16.20;99.90;;;;;;4479416;26;20072;-54
2024/04/14 05:34:21;;;;;;;11.50;6.82;;;16.60;99.90;;;;;;4480587;26;20063;-52
2024/04/14 05:36:22;;;;;;;9.45;5.18;;;16.70;99.90;;;;;;4480045;26;20068;-55
2024/04/14 05:38:23;;;;;;;7.03;4.72;;;17.20;99.90;;;;;;4479773;26;20386;-56
2024/04/14 05:40:25;;;;;;;7.45;4.78;;;17.40;99.90;;;;;;4466851;26;20313;-54
2024/04/14 05:42:26;;;;;;;6.90;4.70;;;17.80;99.90;;;;;;4449690;26;20073;-56
2024/04/14 05:44:32;;;;;;;7.63;4.53;;;18.30;99.90;;;;;;4450778;26;20073;-53
2024/04/14 05:46:33;;;;;;;8.52;4.78;;;19.00;99.90;;;;;;4450273;26;20441;-55
2024/04/14 05:48:34;;;;;;;6.65;4.43;;;19.30;99.30;;;;;;4452120;26;19992;-52
2024/04/14 05:50:35;;;;;;;8.35;4.43;;;19.50;98.90;;;;;;4450313;26;20069;-53
2024/04/14 05:52:36;;;;;;;12.95;5.63;;;20.00;98.50;;;;;;4451973;26;20414;-55
2024/04/14 05:54:38;;;;;;;7.25;4.45;;;20.70;97.70;;;;;;4450343;26;20500;-55
2024/04/14 05:56:39;;;;;;;13.95;5.18;;;21.00;96.90;;;;;;4450831;26;20081;-54
2024/04/14 05:58:40;;;;;;;9.98;5.00;;;21.40;96.30;;;;;;4458689;26;20003;-54
2024/04/14 06:00:42;;;;;;;6.22;4.32;;;21.60;95.40;;;;;;4480718;26;19996;-57
2024/04/14 06:02:43;;;;;;;7.95;4.00;;;21.90;94.90;;;;;;4479791;26;20425;-53
2024/04/14 06:04:44;;;;;;;6.38;4.18;;;22.30;94.40;;;;;;4480762;26;20072;-53
2024/04/14 06:06:49;;;;;;;6.25;4.20;;;22.00;94.00;;;;;;4477833;26;20439;-54
2024/04/14 06:08:52;;;;;;;7.47;4.68;;;21.60;94.10;;;;;;4481027;26;20012;-55
2024/04/14 06:10:55;;;;;;;9.30;5.53;;;21.10;94.10;;;;;;4480352;26;20007;-56
2024/04/14 06:12:56;;;;;;;7.20;4.88;;;20.40;94.70;;;;;;4479473;26;20041;-54
2024/04/14 06:14:59;;;;;;;9.77;4.95;;;20.10;95.00;;;;;;4479563;26;20008;-52
2024/04/14 06:17:01;;;;;;;8.40;5.70;;;20.10;95.30;;;;;;4479166;26;20072;-53
2024/04/14 06:19:02;;;;;;;6.57;5.57;;;20.00;95.30;;;;;;4480295;26;20072;-53
2024/04/14 06:21:04;;;;;;;7.15;5.18;;;20.00;95.30;;;;;;4478289;26;20000;-57
2024/04/14 06:23:05;;;;;;;8.88;5.25;;;19.90;95.40;;;;;;4480653;26;20072;-54
2024/04/14 06:25:07;;;;;;;8.70;5.13;;;20.00;95.40;;;;;;4478909;26;20015;-54
2024/04/14 06:27:08;;;;;;;8.00;5.63;;;19.60;95.60;;;;;;4479512;26;20008;-53
2024/04/14 06:29:09;;;;;;;10.88;5.45;;;19.30;96.00;;;;;;4479406;26;20393;-56
2024/04/14 06:31:10;;;;;;;7.85;5.38;;;19.70;95.80;;;;;;4480352;26;20072;-54
2024/04/14 06:33:11;;;;;;;11.38;5.07;;;19.50;96.00;;;;;;4478475;26;20011;-56
2024/04/14 06:35:13;;;;;;;9.27;5.47;;;19.80;95.70;;;;;;4479976;26;20400;-53
2024/04/14 06:37:15;;;;;;;7.28;4.43;;;19.90;95.40;;;;;;4478263;26;20011;-58
2024/04/14 06:39:16;;;;;;;9.15;4.85;;;20.00;95.30;;;;;;4479652;26;20060;-56
2024/04/14 06:41:17;;;;;;;8.30;5.70;;;20.60;95.00;;;;;;4477280;26;20062;-55
2024/04/14 06:43:19;;;;;;;9.45;5.22;;;20.80;94.50;;;;;;4480057;26;20007;-54
2024/04/14 06:45:20;;;;;;;9.63;5.25;;;21.10;94.30;;;;;;4478919;26;20067;-57
2024/04/14 06:47:21;;;;;;;7.25;5.40;;;21.40;93.90;;;;;;4479312;26;20062;-60
2024/04/14 06:49:22;;;;;;;9.13;5.78;;;21.50;93.60;;;;;;4479518;26;20183;-53
2024/04/14 06:51:24;;;;;;;7.50;5.10;;;21.40;93.40;;;;;;4479448;26;20127;-57
2024/04/14 06:53:25;;;;;;;11.05;6.30;;;21.30;93.70;;;;;;4480068;26;20072;-55
2024/04/14 06:55:26;;;;;;;11.38;6.70;;;21.40;93.70;;;;;;4478441;26;20333;-50
2024/04/14 06:57:27;;;;;;;10.40;6.38;;;21.10;93.70;;;;;;4479950;26;20007;-56
2024/04/14 06:59:29;;;;;;;11.60;8.55;;;20.90;93.90;;;;;;4470308;26;20012;-52
2024/04/14 07:01:30;;;;;;;10.35;7.75;;;20.70;93.90;;;;;;4477505;26;19996;-58
2024/04/14 07:03:31;;;;;;;9.65;7.75;;;20.60;94.30;;;;;;4477574;26;20077;-56
2024/04/14 07:05:33;;;;;;;11.07;8.70;;;20.50;94.40;;;;;;4479238;26;20095;-54
2024/04/14 07:07:35;;;;;;;10.52;5.75;;;20.50;94.30;;;;;;4477599;26;20389;-54
2024/04/14 07:09:37;;;;;;;10.27;4.35;;;20.90;94.10;;;;;;4479530;26;20068;-55
2024/04/14 07:11:38;;;;;;;8.32;5.95;;;21.10;93.80;;;;;;4478161;26;20003;-54
2024/04/14 07:13:39;;;;;;;6.03;4.22;;;21.00;93.70;;;;;;4478518;26;20100;-52
2024/04/14 07:15:41;;;;;;;6.13;3.78;;;20.90;93.70;;;;;;4479005;26;20015;-55
2024/04/14 07:17:42;;;;;;;4.68;3.55;;;20.90;93.90;;;;;;4478569;26;20000;-55
2024/04/14 07:19:44;;;;;;;6.35;3.70;;;21.00;93.90;;;;;;4478763;26;19999;-57
2024/04/14 07:21:45;;;;;;;8.85;4.57;;;21.30;93.70;;;;;;4478329;26;20101;-57
2024/04/14 07:23:46;;;;;;;8.27;4.15;;;21.20;93.60;;;;;;4479461;26;21001;-56
2024/04/14 07:25:48;;;;;;;6.38;3.80;;;21.20;93.70;;;;;;4477851;26;19999;-55
2024/04/14 07:27:49;;;;;;;7.70;4.15;;;21.20;93.60;;;;;;4479804;26;20000;-58
2024/04/14 07:29:50;;;;;;;20.25;5.25;;;21.20;93.70;;;;;;4478499;26;20328;-57
2024/04/14 07:31:51;;;;;;;7.75;4.63;;;20.80;93.70;;;;;;4481287;26;20447;-55
2024/04/14 07:34:00;;;;;;;9.30;3.83;;;20.50;94.10;;;;;;4477640;26;20041;-56
2024/04/14 07:36:03;;;;;;;5.28;3.45;;;20.30;94.20;;;;;;4479089;26;20011;-61
2024/04/14 07:38:04;;;;;;;4.85;2.38;;;20.40;94.10;;;;;;4475429;26;20084;-60
2024/04/14 07:40:06;;;;;;;3.80;2.05;;;20.30;93.70;;;;;;4479779;26;20487;-60
2024/04/14 07:42:08;;;;;;;8.40;2.22;;;20.10;93.90;;;;;;4476412;26;20332;-57
2024/04/14 07:44:09;;;;;;;2.97;1.40;;;20.20;94.00;;;;;;4478418;26;20328;-56
2024/04/14 07:46:10;;;;;;;2.63;1.63;;;20.00;93.60;;;;;;4478251;26;20064;-56
2024/04/14 07:48:11;;;;;;;2.05;1.80;;;20.00;93.60;;;;;;4479860;26;20072;-57
2024/04/14 07:50:13;;;;;;;4.40;2.80;;;19.90;93.80;;;;;;4479205;26;20072;-57
2024/04/14 07:52:14;;;;;;;3.97;1.95;;;19.90;94.20;;;;;;4478037;26;20069;-57
2024/04/14 07:54:15;;;;;;;3.33;1.77;;;20.00;94.10;;;;;;4478833;26;19995;-59
2024/04/14 07:56:16;;;;;;;3.45;1.80;;;20.20;93.90;;;;;;4478191;26;20012;-54
2024/04/14 07:58:18;;;;;;;5.70;1.75;;;20.40;93.70;;;;;;4478599;26;20072;-53
2024/04/14 08:00:19;;;;;;;4.55;1.80;;;20.60;93.50;;;;;;4477279;26;20068;-57
2024/04/14 08:02:20;;;;;;;3.47;2.17;;;20.60;93.40;;;;;;4479227;26;20042;-56
2024/04/14 08:04:21;;;;;;;4.35;2.10;;;20.90;93.50;;;;;;4477894;26;20007;-56
2024/04/14 08:06:23;;;;;;;2.75;2.08;;;21.00;93.20;;;;;;4479543;26;20011;-57
2024/04/14 08:08:24;;;;;;;4.00;2.10;;;20.90;93.40;;;;;;4477466;26;20076;-58
2024/04/14 08:10:25;;;;;;;2.85;1.77;;;20.80;93.60;;;;;;4478634;26;19999;-57
2024/04/14 08:12:28;;;;;;;2.58;2.17;;;20.90;93.60;;;;;;4477694;26;20435;-58
2024/04/14 08:14:29;;;;;;;4.05;2.08;;;20.90;93.70;;;;;;4479412;26;20068;-60
2024/04/14 08:16:31;;;;;;;3.67;2.22;;;21.10;93.60;;;;;;4478324;26;20336;-58
2024/04/14 08:18:32;;;;;;;5.63;3.40;;;21.30;93.40;;;;;;4475265;26;20007;-56
2024/04/14 08:20:33;;;;;;;5.18;2.45;;;21.30;93.30;;;;;;4477493;26;20064;-61
2024/04/14 08:22:34;;;;;;;7.93;3.33;;;21.50;93.30;;;;;;4478053;26;20007;-60
2024/04/14 08:24:36;;;;;;;4.70;2.30;;;21.50;93.30;;;;;;4479332;26;20011;-63
2024/04/14 08:26:37;;;;;;;3.22;2.03;;;21.40;93.30;;;;;;4477776;26;20366;-59
2024/04/14 08:28:38;;;;;;;3.05;2.03;;;21.40;93.30;;;;;;4477010;26;20053;-58
2024/04/14 08:30:39;;;;;;;3.25;2.22;;;21.60;93.20;;;;;;4476328;26;20015;-57
2024/04/14 08:32:42;;;;;;;3.38;2.20;;;21.80;93.00;;;;;;4478652;26;19999;-64
2024/04/14 08:34:43;;;;;;;7.65;2.80;;;21.70;93.00;;;;;;4478088;26;20007;-62
2024/04/14 08:36:44;;;;;;;5.13;2.30;;;21.70;93.00;;;;;;4478622;26;20007;-62
2024/04/14 08:38:45;;;;;;;2.58;2.28;;;21.90;92.90;;;;;;4469864;26;20083;-60
2024/04/14 08:40:54;;;;;;;4.22;2.67;;;21.90;92.90;;;;;;4478625;26;20063;-63
2024/04/14 08:42:55;;;;;;;9.07;3.88;;;21.90;92.90;;;;;;4477554;26;19999;-63
2024/04/14 08:44:58;;;;;;;4.20;2.45;;;21.90;92.80;;;;;;4478623;26;20083;-57
2024/04/14 08:47:02;;;;;;;4.03;2.67;;;21.90;92.80;;;;;;4477132;26;20067;-62
2024/04/14 08:49:06;;;;;;;5.10;2.47;;;21.90;92.80;;;;;;4479154;26;20067;-62
2024/04/14 08:51:08;;;;;;;5.03;2.47;;;22.10;92.60;;;;;;4477342;26;20000;-62
2024/04/14 08:53:11;;;;;;;4.18;2.33;;;22.30;92.60;;;;;;4476709;26;20008;-61
2024/04/14 08:55:13;;;;;;;5.30;2.30;;;22.10;92.60;;;;;;4477431;26;20428;-62
2024/04/14 08:57:15;;;;;;;2.60;1.90;;;22.10;92.50;;;;;;4477472;26;20068;-61
2024/04/14 08:59:21;;;;;;;3.53;2.33;;;22.10;92.40;;;;;;4477268;26;20011;-61
2024/04/14 09:01:23;;;;;;;2.60;1.63;;;22.10;92.30;;;;;;4477424;26;20397;-60
2024/04/14 09:03:24;;;;;;;5.47;1.98;;;22.30;92.20;;;;;;4478404;26;20007;-62
2024/04/14 09:05:25;;;;;;;2.42;1.75;;;22.50;91.80;;;;;;4479288;26;20072;-62
2024/04/14 09:07:27;;;;;;;3.88;1.70;;;22.80;91.50;;;;;;4480769;26;20071;-62
2024/04/14 09:09:28;;;;;;;5.00;2.20;;;22.90;91.40;;;;;;4479512;26;20072;-61
2024/04/14 09:11:29;;;;;;;7.03;1.92;;;23.00;91.50;;;;;;4481503;26;20000;-63
2024/04/14 09:13:30;;;;;;;5.57;1.73;;;23.00;91.40;;;;;;4478882;26;20512;-55
2024/04/14 09:15:38;;;;;;;3.50;1.98;;;23.10;91.70;;;;;;4480060;26;20417;-60
2024/04/14 09:17:40;;;;;;;4.65;1.48;;;23.20;91.20;;;;;;4471271;26;20080;-59
2024/04/14 09:19:43;;;;;;;2.67;1.58;;;23.30;91.00;;;;;;4479509;26;20447;-60
2024/04/14 09:21:45;;;;;;;2.53;1.23;;;23.50;90.70;;;;;;4479062;26;20007;-60
2024/04/14 09:23:48;;;;;;;3.53;1.73;;;23.60;90.40;;;;;;4479577;26;19999;-59
2024/04/14 09:25:50;;;;;;;3.13;1.45;;;23.70;90.20;;;;;;4479461;26;19999;-61
2024/04/14 09:28:07;;;;;;;6.03;1.85;;;23.60;90.00;;;;;;4479127;26;20071;-56
2024/04/14 09:30:19;;;;;;;2.50;1.60;;;23.50;89.70;;;;;;4450113;26;20077;-57
2024/04/14 09:32:20;;;;;;;4.65;1.38;;;23.60;89.40;;;;;;4453539;26;20008;-57
2024/04/14 09:34:22;;;;;;;3.28;1.40;;;23.80;89.60;;;;;;4479552;26;19995;-56
2024/04/14 09:36:25;;;;;;;7.25;2.05;;;24.00;89.20;;;;;;4479511;26;20007;-60
2024/04/14 09:38:27;;;;;;;7.85;1.30;;;24.20;89.00;;;;;;4479815;26;20007;-60
2024/04/14 09:40:31;;;;;;;4.57;1.40;;;24.30;88.30;;;;;;4479344;26;20064;-59
2024/04/14 09:42:35;;;;;;;1.33;1.10;;;24.40;88.00;;;;;;4479234;26;20079;-59
2024/04/14 09:44:38;;;;;;;3.78;1.35;;;24.70;87.80;;;;;;4479595;26;19999;-58
2024/04/14 09:46:40;;;;;;;5.22;1.50;;;24.90;87.80;;;;;;4479086;26;19999;-59
2024/04/14 09:48:42;;;;;;;3.25;1.67;;;25.00;87.10;;;;;;4478889;26;20053;-59
2024/04/14 09:50:44;;;;;;;2.00;1.40;;;25.00;86.60;;;;;;4479525;26;20004;-61
2024/04/14 09:52:50;;;;;;;3.60;1.15;;;25.00;86.10;;;;;;4479243;26;20011;-61
2024/04/14 09:54:54;;;;;;;3.08;1.42;;;25.10;86.40;;;;;;4480591;26;20071;-61
2024/04/14 09:56:55;;;;;;;2.92;1.33;;;25.20;86.20;;;;;;4478698;26;20070;-61
2024/04/14 09:58:57;;;;;;;3.88;1.70;;;25.20;85.60;;;;;;4480589;26;20824;-61
2024/04/14 10:01:02;;;;;;;4.60;1.48;;;25.20;84.60;;;;;;4477849;26;20044;-61
2024/04/14 10:03:08;;;;;;;7.88;3.17;;;25.30;84.60;;;;;;4480819;26;20496;-62
2024/04/14 10:05:10;;;;;;;1.17;0.98;;;25.40;84.40;;;;;;4477122;26;20504;-60
2024/04/14 10:07:14;;;;;;;5.43;1.25;;;25.40;83.70;;;;;;4479719;26;20075;-61
2024/04/14 10:09:16;;;;;;;4.53;1.35;;;25.30;82.20;;;;;;4478621;26;20747;-59
2024/04/14 10:11:20;;;;;;;1.35;1.00;;;25.00;82.90;;;;;;4479778;26;20544;-61
2024/04/14 10:13:21;;;;;;;4.82;1.25;;;25.00;82.50;;;;;;4478556;26;20007;-59
2024/04/14 10:15:25;;;;;;;4.05;1.20;;;25.20;82.70;;;;;;4478458;26;20658;-62
2024/04/14 10:17:28;;;;;;;6.03;1.40;;;25.40;82.50;;;;;;4477991;26;20003;-63
2024/04/14 10:19:34;;;;;;;4.03;1.33;;;25.60;82.20;;;;;;4449921;26;20077;-60
2024/04/14 10:21:36;;;;;;;2.35;1.20;;;25.90;81.40;;;;;;4474036;26;20407;-61
2024/04/14 10:23:45;;;;;;;0.93;0.60;;;26.00;80.70;;;;;;4479515;26;20412;-62
2024/04/14 10:25:48;;;;;;;4.32;0.68;;;26.00;78.10;;;;;;4480191;26;20003;-60
2024/04/14 10:27:49;;;;;;;2.33;0.80;;;25.90;78.20;;;;;;4479823;26;20068;-63
2024/04/14 10:29:56;;;;;;;0.82;0.70;;;25.80;76.90;;;;;;4479915;26;20041;-61
2024/04/14 10:31:58;;;;;;;2.83;0.45;;;25.70;75.00;;;;;;4449110;26;20093;-64
2024/04/14 10:34:03;;;;;;;3.22;0.50;;;25.40;75.10;;;;;;4450730;26;20077;-62